sensor_id;sensor_type;location;lat;lon;timestamp;P1;durP1;ratioP1;P2;durP2;ratioP2
17796;SDS011;55596;53.554;9.916;2023-03-15T00:00:34;9.67;;;1.40;;
17796;SDS011;55596;53.554;9.916;2023-03-15T00:03:01;4.23;;;1.00;;
17796;SDS011;55596;53.554;9.916;2023-03-15T00:05:29;4.67;;;1.30;;
17796;SDS011;55596;53.554;9.916;2023-03-15T00:07:57;11.23;;;1.87;;
17796;SDS011;55596;53.554;9.916;2023-03-15T00:10:24;3.47;;;0.83;;
17796;SDS011;55596;53.554;9.916;2023-03-15T00:12:53;6.53;;;1.10;;
17796;SDS011;55596;53.554;9.916;2023-03-15T00:15:20;2.77;;;0.87;;
17796;SDS011;55596;53.554;9.916;2023-03-15T00:17:47;7.03;;;1.40;;
17796;SDS011;55596;53.554;9.916;2023-03-15T00:20:14;6.53;;;1.50;;
17796;SDS011;55596;53.554;9.916;2023-03-15T00:22:43;9.37;;;1.53;;
17796;SDS011;55596;53.554;9.916;2023-03-15T00:25:10;5.00;;;1.37;;
17796;SDS011;55596;53.554;9.916;2023-03-15T00:27:37;6.90;;;1.23;;
17796;SDS011;55596;53.554;9.916;2023-03-15T00:30:06;8.67;;;1.30;;
17796;SDS011;55596;53.554;9.916;2023-03-15T00:32:34;5.40;;;1.40;;
17796;SDS011;55596;53.554;9.916;2023-03-15T00:35:01;5.60;;;1.30;;
17796;SDS011;55596;53.554;9.916;2023-03-15T00:37:28;7.13;;;1.30;;
17796;SDS011;55596;53.554;9.916;2023-03-15T00:39:56;5.83;;;1.30;;
17796;SDS011;55596;53.554;9.916;2023-03-15T00:42:24;3.80;;;1.33;;
17796;SDS011;55596;53.554;9.916;2023-03-15T00:44:52;6.50;;;1.53;;
17796;SDS011;55596;53.554;9.916;2023-03-15T00:47:21;4.97;;;1.57;;
17796;SDS011;55596;53.554;9.916;2023-03-15T00:49:48;5.30;;;1.60;;
17796;SDS011;55596;53.554;9.916;2023-03-15T00:52:16;5.13;;;1.40;;
17796;SDS011;55596;53.554;9.916;2023-03-15T00:54:43;8.43;;;1.93;;
17796;SDS011;55596;53.554;9.916;2023-03-15T00:57:10;5.77;;;1.50;;
17796;SDS011;55596;53.554;9.916;2023-03-15T00:59:37;6.23;;;1.60;;
17796;SDS011;55596;53.554;9.916;2023-03-15T01:02:05;7.33;;;1.80;;
17796;SDS011;55596;53.554;9.916;2023-03-15T01:04:33;11.20;;;2.00;;
17796;SDS011;55596;53.554;9.916;2023-03-15T01:07:01;8.77;;;1.70;;
17796;SDS011;55596;53.554;9.916;2023-03-15T01:09:28;9.73;;;1.73;;
17796;SDS011;55596;53.554;9.916;2023-03-15T01:11:55;7.27;;;2.00;;
17796;SDS011;55596;53.554;9.916;2023-03-15T01:14:22;6.67;;;2.17;;
17796;SDS011;55596;53.554;9.916;2023-03-15T01:16:49;8.70;;;2.23;;
17796;SDS011;55596;53.554;9.916;2023-03-15T01:19:17;11.73;;;2.33;;
17796;SDS011;55596;53.554;9.916;2023-03-15T01:21:45;7.73;;;2.40;;
17796;SDS011;55596;53.554;9.916;2023-03-15T01:24:13;5.60;;;2.43;;
17796;SDS011;55596;53.554;9.916;2023-03-15T01:26:40;9.00;;;2.00;;
17796;SDS011;55596;53.554;9.916;2023-03-15T01:29:08;5.67;;;2.27;;
17796;SDS011;55596;53.554;9.916;2023-03-15T01:31:36;18.00;;;2.73;;
17796;SDS011;55596;53.554;9.916;2023-03-15T01:34:03;11.93;;;2.00;;
17796;SDS011;55596;53.554;9.916;2023-03-15T01:36:30;8.80;;;2.10;;
17796;SDS011;55596;53.554;9.916;2023-03-15T01:38:58;13.47;;;2.30;;
17796;SDS011;55596;53.554;9.916;2023-03-15T01:41:26;8.73;;;2.37;;
17796;SDS011;55596;53.554;9.916;2023-03-15T01:43:53;6.17;;;2.73;;
17796;SDS011;55596;53.554;9.916;2023-03-15T01:46:21;8.30;;;2.47;;
17796;SDS011;55596;53.554;9.916;2023-03-15T01:48:50;9.77;;;2.87;;
17796;SDS011;55596;53.554;9.916;2023-03-15T01:51:18;7.53;;;2.40;;
17796;SDS011;55596;53.554;9.916;2023-03-15T01:53:49;5.17;;;2.10;;
17796;SDS011;55596;53.554;9.916;2023-03-15T01:56:19;7.30;;;2.83;;
17796;SDS011;55596;53.554;9.916;2023-03-15T01:58:46;7.70;;;2.63;;
17796;SDS011;55596;53.554;9.916;2023-03-15T02:01:14;6.43;;;2.50;;
17796;SDS011;55596;53.554;9.916;2023-03-15T02:03:44;7.87;;;2.30;;
17796;SDS011;55596;53.554;9.916;2023-03-15T02:06:13;5.80;;;2.23;;
17796;SDS011;55596;53.554;9.916;2023-03-15T02:08:43;5.10;;;2.50;;
17796;SDS011;55596;53.554;9.916;2023-03-15T02:11:11;4.20;;;2.43;;
17796;SDS011;55596;53.554;9.916;2023-03-15T02:13:40;9.77;;;2.43;;
17796;SDS011;55596;53.554;9.916;2023-03-15T02:16:07;11.03;;;2.43;;
17796;SDS011;55596;53.554;9.916;2023-03-15T02:18:35;9.67;;;2.50;;
17796;SDS011;55596;53.554;9.916;2023-03-15T02:21:05;9.17;;;2.50;;
17796;SDS011;55596;53.554;9.916;2023-03-15T02:23:33;9.37;;;2.80;;
17796;SDS011;55596;53.554;9.916;2023-03-15T02:26:03;6.77;;;2.53;;
17796;SDS011;55596;53.554;9.916;2023-03-15T02:28:32;8.77;;;3.13;;
17796;SDS011;55596;53.554;9.916;2023-03-15T02:31:00;5.23;;;2.43;;
17796;SDS011;55596;53.554;9.916;2023-03-15T02:33:27;7.20;;;2.30;;
17796;SDS011;55596;53.554;9.916;2023-03-15T02:35:56;9.27;;;3.07;;
17796;SDS011;55596;53.554;9.916;2023-03-15T02:38:32;7.83;;;2.77;;
17796;SDS011;55596;53.554;9.916;2023-03-15T02:40:59;10.07;;;2.90;;
17796;SDS011;55596;53.554;9.916;2023-03-15T02:43:27;5.67;;;3.10;;
17796;SDS011;55596;53.554;9.916;2023-03-15T02:45:56;6.90;;;3.23;;
17796;SDS011;55596;53.554;9.916;2023-03-15T02:48:24;12.87;;;2.67;;
17796;SDS011;55596;53.554;9.916;2023-03-15T02:50:51;7.63;;;2.57;;
17796;SDS011;55596;53.554;9.916;2023-03-15T02:53:18;8.17;;;2.90;;
17796;SDS011;55596;53.554;9.916;2023-03-15T02:55:45;9.70;;;3.03;;
17796;SDS011;55596;53.554;9.916;2023-03-15T02:58:13;8.03;;;3.13;;
17796;SDS011;55596;53.554;9.916;2023-03-15T03:00:40;8.10;;;3.53;;
17796;SDS011;55596;53.554;9.916;2023-03-15T03:03:08;7.20;;;3.27;;
17796;SDS011;55596;53.554;9.916;2023-03-15T03:05:36;6.13;;;2.90;;
17796;SDS011;55596;53.554;9.916;2023-03-15T03:08:03;6.03;;;3.13;;
17796;SDS011;55596;53.554;9.916;2023-03-15T03:10:30;6.80;;;3.00;;
17796;SDS011;55596;53.554;9.916;2023-03-15T03:12:57;8.57;;;3.60;;
17796;SDS011;55596;53.554;9.916;2023-03-15T03:15:25;7.63;;;3.00;;
17796;SDS011;55596;53.554;9.916;2023-03-15T03:17:52;9.83;;;3.40;;
17796;SDS011;55596;53.554;9.916;2023-03-15T03:20:20;5.80;;;2.40;;
17796;SDS011;55596;53.554;9.916;2023-03-15T03:22:48;7.30;;;3.20;;
17796;SDS011;55596;53.554;9.916;2023-03-15T03:25:15;5.27;;;2.73;;
17796;SDS011;55596;53.554;9.916;2023-03-15T03:27:42;5.03;;;2.87;;
17796;SDS011;55596;53.554;9.916;2023-03-15T03:30:10;7.03;;;2.73;;
17796;SDS011;55596;53.554;9.916;2023-03-15T03:32:38;6.80;;;3.40;;
17796;SDS011;55596;53.554;9.916;2023-03-15T03:35:06;4.63;;;2.50;;
17796;SDS011;55596;53.554;9.916;2023-03-15T03:37:34;5.23;;;2.70;;
17796;SDS011;55596;53.554;9.916;2023-03-15T03:40:02;5.13;;;2.50;;
17796;SDS011;55596;53.554;9.916;2023-03-15T03:42:32;5.90;;;2.90;;
17796;SDS011;55596;53.554;9.916;2023-03-15T03:44:59;5.03;;;2.60;;
17796;SDS011;55596;53.554;9.916;2023-03-15T03:47:26;9.50;;;2.20;;
17796;SDS011;55596;53.554;9.916;2023-03-15T03:49:53;13.53;;;3.03;;
17796;SDS011;55596;53.554;9.916;2023-03-15T03:52:21;11.57;;;2.40;;
17796;SDS011;55596;53.554;9.916;2023-03-15T03:54:49;22.90;;;3.67;;
17796;SDS011;55596;53.554;9.916;2023-03-15T03:57:16;3.93;;;2.17;;
17796;SDS011;55596;53.554;9.916;2023-03-15T03:59:43;9.17;;;3.43;;
17796;SDS011;55596;53.554;9.916;2023-03-15T04:02:11;9.80;;;3.40;;
17796;SDS011;55596;53.554;9.916;2023-03-15T04:04:38;6.33;;;3.00;;
17796;SDS011;55596;53.554;9.916;2023-03-15T04:07:06;5.03;;;2.80;;
17796;SDS011;55596;53.554;9.916;2023-03-15T04:09:33;7.93;;;2.80;;
17796;SDS011;55596;53.554;9.916;2023-03-15T04:12:03;7.70;;;2.87;;
17796;SDS011;55596;53.554;9.916;2023-03-15T04:14:30;7.10;;;2.60;;
17796;SDS011;55596;53.554;9.916;2023-03-15T04:16:57;8.80;;;2.80;;
17796;SDS011;55596;53.554;9.916;2023-03-15T04:19:27;4.23;;;2.80;;
17796;SDS011;55596;53.554;9.916;2023-03-15T04:21:54;5.23;;;2.73;;
17796;SDS011;55596;53.554;9.916;2023-03-15T04:24:22;6.63;;;3.33;;
17796;SDS011;55596;53.554;9.916;2023-03-15T04:26:49;7.97;;;3.53;;
17796;SDS011;55596;53.554;9.916;2023-03-15T04:29:23;7.93;;;4.60;;
17796;SDS011;55596;53.554;9.916;2023-03-15T04:31:51;8.07;;;5.27;;
17796;SDS011;55596;53.554;9.916;2023-03-15T04:34:25;9.73;;;6.07;;
17796;SDS011;55596;53.554;9.916;2023-03-15T04:36:52;8.50;;;5.83;;
17796;SDS011;55596;53.554;9.916;2023-03-15T04:39:19;11.13;;;6.67;;
17796;SDS011;55596;53.554;9.916;2023-03-15T04:41:46;11.67;;;6.67;;
17796;SDS011;55596;53.554;9.916;2023-03-15T04:44:14;13.30;;;6.93;;
17796;SDS011;55596;53.554;9.916;2023-03-15T04:46:42;11.23;;;6.90;;
17796;SDS011;55596;53.554;9.916;2023-03-15T04:49:09;16.77;;;6.17;;
17796;SDS011;55596;53.554;9.916;2023-03-15T04:51:36;17.67;;;7.67;;
17796;SDS011;55596;53.554;9.916;2023-03-15T04:54:04;14.67;;;7.20;;
17796;SDS011;55596;53.554;9.916;2023-03-15T04:56:31;16.67;;;8.60;;
17796;SDS011;55596;53.554;9.916;2023-03-15T04:58:58;19.13;;;8.23;;
17796;SDS011;55596;53.554;9.916;2023-03-15T05:01:27;13.10;;;8.13;;
17796;SDS011;55596;53.554;9.916;2023-03-15T05:03:56;14.37;;;7.97;;
17796;SDS011;55596;53.554;9.916;2023-03-15T05:06:23;13.67;;;7.87;;
17796;SDS011;55596;53.554;9.916;2023-03-15T05:08:50;13.47;;;8.10;;
17796;SDS011;55596;53.554;9.916;2023-03-15T05:11:18;11.90;;;7.47;;
17796;SDS011;55596;53.554;9.916;2023-03-15T05:13:45;17.27;;;7.53;;
17796;SDS011;55596;53.554;9.916;2023-03-15T05:16:12;18.37;;;8.27;;
17796;SDS011;55596;53.554;9.916;2023-03-15T05:18:39;16.30;;;7.27;;
17796;SDS011;55596;53.554;9.916;2023-03-15T05:21:08;22.43;;;7.63;;
17796;SDS011;55596;53.554;9.916;2023-03-15T05:23:36;18.97;;;8.13;;
17796;SDS011;55596;53.554;9.916;2023-03-15T05:26:04;14.47;;;7.80;;
17796;SDS011;55596;53.554;9.916;2023-03-15T05:28:31;14.33;;;7.40;;
17796;SDS011;55596;53.554;9.916;2023-03-15T05:30:58;16.73;;;7.53;;
17796;SDS011;55596;53.554;9.916;2023-03-15T05:33:26;18.27;;;7.87;;
17796;SDS011;55596;53.554;9.916;2023-03-15T05:35:53;19.63;;;8.20;;
17796;SDS011;55596;53.554;9.916;2023-03-15T05:38:22;21.43;;;7.90;;
17796;SDS011;55596;53.554;9.916;2023-03-15T05:40:51;15.93;;;7.50;;
17796;SDS011;55596;53.554;9.916;2023-03-15T05:43:18;16.10;;;7.60;;
17796;SDS011;55596;53.554;9.916;2023-03-15T05:45:45;21.60;;;8.93;;
17796;SDS011;55596;53.554;9.916;2023-03-15T05:48:13;17.53;;;8.50;;
17796;SDS011;55596;53.554;9.916;2023-03-15T05:50:40;23.03;;;9.37;;
17796;SDS011;55596;53.554;9.916;2023-03-15T05:53:07;22.67;;;8.77;;
17796;SDS011;55596;53.554;9.916;2023-03-15T05:55:36;17.63;;;9.00;;
17796;SDS011;55596;53.554;9.916;2023-03-15T05:58:03;19.97;;;9.03;;
17796;SDS011;55596;53.554;9.916;2023-03-15T06:00:30;19.73;;;8.43;;
17796;SDS011;55596;53.554;9.916;2023-03-15T06:02:58;22.03;;;9.83;;
17796;SDS011;55596;53.554;9.916;2023-03-15T06:05:25;19.27;;;9.97;;
17796;SDS011;55596;53.554;9.916;2023-03-15T06:07:52;20.63;;;10.33;;
17796;SDS011;55596;53.554;9.916;2023-03-15T06:10:19;20.47;;;10.63;;
17796;SDS011;55596;53.554;9.916;2023-03-15T06:12:48;26.40;;;11.70;;
17796;SDS011;55596;53.554;9.916;2023-03-15T06:15:16;20.80;;;11.33;;
17796;SDS011;55596;53.554;9.916;2023-03-15T06:17:43;21.60;;;10.10;;
17796;SDS011;55596;53.554;9.916;2023-03-15T06:20:11;25.43;;;10.90;;
17796;SDS011;55596;53.554;9.916;2023-03-15T06:22:38;22.47;;;10.50;;
17796;SDS011;55596;53.554;9.916;2023-03-15T06:25:06;21.90;;;10.40;;
17796;SDS011;55596;53.554;9.916;2023-03-15T06:27:33;19.10;;;10.97;;
17796;SDS011;55596;53.554;9.916;2023-03-15T06:30:02;22.50;;;10.93;;
17796;SDS011;55596;53.554;9.916;2023-03-15T06:32:29;20.50;;;11.70;;
17796;SDS011;55596;53.554;9.916;2023-03-15T06:34:57;25.70;;;11.23;;
17796;SDS011;55596;53.554;9.916;2023-03-15T06:37:24;30.33;;;11.93;;
17796;SDS011;55596;53.554;9.916;2023-03-15T06:39:51;22.70;;;10.90;;
17796;SDS011;55596;53.554;9.916;2023-03-15T06:42:18;21.87;;;11.43;;
17796;SDS011;55596;53.554;9.916;2023-03-15T06:44:45;22.33;;;11.80;;
17796;SDS011;55596;53.554;9.916;2023-03-15T06:47:14;31.50;;;12.83;;
17796;SDS011;55596;53.554;9.916;2023-03-15T06:49:41;22.20;;;12.00;;
17796;SDS011;55596;53.554;9.916;2023-03-15T06:52:08;22.70;;;11.63;;
17796;SDS011;55596;53.554;9.916;2023-03-15T06:54:35;20.83;;;11.93;;
17796;SDS011;55596;53.554;9.916;2023-03-15T06:57:03;27.50;;;11.53;;
17796;SDS011;55596;53.554;9.916;2023-03-15T06:59:30;25.60;;;11.20;;
17796;SDS011;55596;53.554;9.916;2023-03-15T07:01:57;22.63;;;10.73;;
17796;SDS011;55596;53.554;9.916;2023-03-15T07:04:26;25.07;;;10.90;;
17796;SDS011;55596;53.554;9.916;2023-03-15T07:06:53;24.60;;;11.50;;
17796;SDS011;55596;53.554;9.916;2023-03-15T07:09:20;28.67;;;10.60;;
17796;SDS011;55596;53.554;9.916;2023-03-15T07:11:48;18.97;;;10.50;;
17796;SDS011;55596;53.554;9.916;2023-03-15T07:14:15;19.33;;;10.23;;
17796;SDS011;55596;53.554;9.916;2023-03-15T07:16:42;23.13;;;9.53;;
17796;SDS011;55596;53.554;9.916;2023-03-15T07:19:10;26.00;;;8.77;;
17796;SDS011;55596;53.554;9.916;2023-03-15T07:21:39;21.40;;;8.83;;
17796;SDS011;55596;53.554;9.916;2023-03-15T07:24:07;18.43;;;8.63;;
17796;SDS011;55596;53.554;9.916;2023-03-15T07:26:51;26.03;;;7.73;;
17796;SDS011;55596;53.554;9.916;2023-03-15T07:29:20;16.33;;;6.33;;
17796;SDS011;55596;53.554;9.916;2023-03-15T07:31:47;20.17;;;5.43;;
17796;SDS011;55596;53.554;9.916;2023-03-15T07:34:15;17.27;;;6.10;;
17796;SDS011;55596;53.554;9.916;2023-03-15T07:36:43;11.00;;;5.13;;
17796;SDS011;55596;53.554;9.916;2023-03-15T07:39:11;13.90;;;6.23;;
17796;SDS011;55596;53.554;9.916;2023-03-15T07:41:56;10.83;;;5.93;;
17796;SDS011;55596;53.554;9.916;2023-03-15T07:44:23;13.77;;;6.60;;
17796;SDS011;55596;53.554;9.916;2023-03-15T07:46:50;17.90;;;6.03;;
17796;SDS011;55596;53.554;9.916;2023-03-15T07:49:19;10.50;;;6.27;;
17796;SDS011;55596;53.554;9.916;2023-03-15T07:51:47;9.77;;;4.87;;
17796;SDS011;55596;53.554;9.916;2023-03-15T07:54:15;11.93;;;5.90;;
17796;SDS011;55596;53.554;9.916;2023-03-15T07:56:43;12.10;;;5.23;;
17796;SDS011;55596;53.554;9.916;2023-03-15T07:59:10;12.07;;;5.90;;
17796;SDS011;55596;53.554;9.916;2023-03-15T08:01:37;12.77;;;5.03;;
17796;SDS011;55596;53.554;9.916;2023-03-15T08:04:05;12.00;;;4.87;;
17796;SDS011;55596;53.554;9.916;2023-03-15T08:06:32;9.93;;;4.73;;
17796;SDS011;55596;53.554;9.916;2023-03-15T08:09:00;8.20;;;4.60;;
17796;SDS011;55596;53.554;9.916;2023-03-15T08:11:29;13.23;;;4.47;;
17796;SDS011;55596;53.554;9.916;2023-03-15T08:13:56;9.80;;;4.03;;
17796;SDS011;55596;53.554;9.916;2023-03-15T08:16:24;10.10;;;4.50;;
17796;SDS011;55596;53.554;9.916;2023-03-15T08:18:51;10.60;;;4.23;;
17796;SDS011;55596;53.554;9.916;2023-03-15T08:21:18;10.53;;;4.30;;
17796;SDS011;55596;53.554;9.916;2023-03-15T08:23:46;12.37;;;4.53;;
17796;SDS011;55596;53.554;9.916;2023-03-15T08:26:14;6.37;;;3.07;;
17796;SDS011;55596;53.554;9.916;2023-03-15T08:28:42;8.47;;;3.40;;
17796;SDS011;55596;53.554;9.916;2023-03-15T08:31:10;8.63;;;3.50;;
17796;SDS011;55596;53.554;9.916;2023-03-15T08:33:38;9.40;;;3.83;;
17796;SDS011;55596;53.554;9.916;2023-03-15T08:36:05;7.40;;;3.70;;
17796;SDS011;55596;53.554;9.916;2023-03-15T08:38:32;9.80;;;3.80;;
17796;SDS011;55596;53.554;9.916;2023-03-15T08:41:00;10.40;;;3.93;;
17796;SDS011;55596;53.554;9.916;2023-03-15T08:43:29;10.90;;;3.97;;
17796;SDS011;55596;53.554;9.916;2023-03-15T08:45:56;10.77;;;3.73;;
17796;SDS011;55596;53.554;9.916;2023-03-15T08:48:24;6.80;;;3.80;;
17796;SDS011;55596;53.554;9.916;2023-03-15T08:50:51;11.93;;;4.17;;
17796;SDS011;55596;53.554;9.916;2023-03-15T08:53:18;6.63;;;3.90;;
17796;SDS011;55596;53.554;9.916;2023-03-15T08:55:46;6.70;;;3.40;;
17796;SDS011;55596;53.554;9.916;2023-03-15T08:58:13;9.67;;;3.40;;
17796;SDS011;55596;53.554;9.916;2023-03-15T09:00:42;8.13;;;2.90;;
17796;SDS011;55596;53.554;9.916;2023-03-15T09:03:10;5.73;;;2.77;;
17796;SDS011;55596;53.554;9.916;2023-03-15T09:05:38;10.80;;;2.73;;
17796;SDS011;55596;53.554;9.916;2023-03-15T09:08:05;4.73;;;2.30;;
17796;SDS011;55596;53.554;9.916;2023-03-15T09:10:33;4.72;;;1.90;;
17796;SDS011;55596;53.554;9.916;2023-03-15T09:13:00;4.07;;;1.60;;
17796;SDS011;55596;53.554;9.916;2023-03-15T09:15:27;6.73;;;1.93;;
17796;SDS011;55596;53.554;9.916;2023-03-15T09:17:56;11.20;;;2.63;;
17796;SDS011;55596;53.554;9.916;2023-03-15T09:20:23;6.83;;;1.40;;
17796;SDS011;55596;53.554;9.916;2023-03-15T09:22:52;6.83;;;1.90;;
17796;SDS011;55596;53.554;9.916;2023-03-15T09:25:20;5.17;;;1.50;;
17796;SDS011;55596;53.554;9.916;2023-03-15T09:27:47;3.03;;;1.27;;
17796;SDS011;55596;53.554;9.916;2023-03-15T09:30:14;2.80;;;0.80;;
17796;SDS011;55596;53.554;9.916;2023-03-15T09:32:42;5.33;;;0.80;;
17796;SDS011;55596;53.554;9.916;2023-03-15T09:35:11;4.03;;;0.70;;
17796;SDS011;55596;53.554;9.916;2023-03-15T09:37:39;4.90;;;0.87;;
17796;SDS011;55596;53.554;9.916;2023-03-15T09:40:09;4.90;;;1.10;;
17796;SDS011;55596;53.554;9.916;2023-03-15T09:42:40;7.23;;;1.50;;
17796;SDS011;55596;53.554;9.916;2023-03-15T09:45:12;8.87;;;1.50;;
17796;SDS011;55596;53.554;9.916;2023-03-15T09:47:42;8.27;;;1.50;;
17796;SDS011;55596;53.554;9.916;2023-03-15T09:50:15;4.13;;;1.10;;
17796;SDS011;55596;53.554;9.916;2023-03-15T09:52:44;4.73;;;1.13;;
17796;SDS011;55596;53.554;9.916;2023-03-15T09:55:14;7.23;;;1.33;;
17796;SDS011;55596;53.554;9.916;2023-03-15T09:57:45;8.73;;;1.20;;
17796;SDS011;55596;53.554;9.916;2023-03-15T10:00:13;12.60;;;1.43;;
17796;SDS011;55596;53.554;9.916;2023-03-15T10:02:41;7.43;;;1.27;;
17796;SDS011;55596;53.554;9.916;2023-03-15T10:05:13;11.20;;;2.10;;
17796;SDS011;55596;53.554;9.916;2023-03-15T10:07:42;9.90;;;1.70;;
17796;SDS011;55596;53.554;9.916;2023-03-15T10:10:13;8.17;;;2.03;;
17796;SDS011;55596;53.554;9.916;2023-03-15T10:12:40;7.07;;;1.53;;
17796;SDS011;55596;53.554;9.916;2023-03-15T10:15:18;10.43;;;1.80;;
17796;SDS011;55596;53.554;9.916;2023-03-15T10:17:46;10.57;;;1.80;;
17796;SDS011;55596;53.554;9.916;2023-03-15T10:20:18;15.67;;;1.87;;
17796;SDS011;55596;53.554;9.916;2023-03-15T10:22:48;11.97;;;2.23;;
17796;SDS011;55596;53.554;9.916;2023-03-15T10:25:16;10.47;;;2.27;;
17796;SDS011;55596;53.554;9.916;2023-03-15T10:27:45;4.87;;;1.40;;
17796;SDS011;55596;53.554;9.916;2023-03-15T10:30:14;12.00;;;1.87;;
17796;SDS011;55596;53.554;9.916;2023-03-15T10:32:42;12.33;;;2.10;;
17796;SDS011;55596;53.554;9.916;2023-03-15T10:35:10;6.03;;;1.33;;
17796;SDS011;55596;53.554;9.916;2023-03-15T10:37:40;10.10;;;1.50;;
17796;SDS011;55596;53.554;9.916;2023-03-15T10:40:09;8.60;;;1.27;;
17796;SDS011;55596;53.554;9.916;2023-03-15T10:42:40;6.03;;;1.20;;
17796;SDS011;55596;53.554;9.916;2023-03-15T10:45:12;5.10;;;1.10;;
17796;SDS011;55596;53.554;9.916;2023-03-15T10:47:41;5.40;;;0.90;;
17796;SDS011;55596;53.554;9.916;2023-03-15T10:50:09;2.90;;;0.97;;
17796;SDS011;55596;53.554;9.916;2023-03-15T10:52:37;7.37;;;1.30;;
17796;SDS011;55596;53.554;9.916;2023-03-15T10:55:05;10.53;;;1.30;;
17796;SDS011;55596;53.554;9.916;2023-03-15T10:57:36;3.40;;;0.90;;
17796;SDS011;55596;53.554;9.916;2023-03-15T11:00:06;3.27;;;0.80;;
17796;SDS011;55596;53.554;9.916;2023-03-15T11:02:45;3.53;;;0.90;;
17796;SDS011;55596;53.554;9.916;2023-03-15T11:05:15;1.43;;;0.80;;
17796;SDS011;55596;53.554;9.916;2023-03-15T11:07:52;6.40;;;0.90;;
17796;SDS011;55596;53.554;9.916;2023-03-15T11:10:20;3.07;;;0.87;;
17796;SDS011;55596;53.554;9.916;2023-03-15T11:12:50;5.07;;;0.70;;
17796;SDS011;55596;53.554;9.916;2023-03-15T11:15:35;2.53;;;0.87;;
17796;SDS011;55596;53.554;9.916;2023-03-15T11:18:02;4.37;;;0.83;;
17796;SDS011;55596;53.554;9.916;2023-03-15T11:20:36;6.17;;;1.00;;
17796;SDS011;55596;53.554;9.916;2023-03-15T11:23:10;8.17;;;1.00;;
17796;SDS011;55596;53.554;9.916;2023-03-15T11:25:39;2.70;;;0.90;;
17796;SDS011;55596;53.554;9.916;2023-03-15T11:28:09;8.20;;;1.03;;
17796;SDS011;55596;53.554;9.916;2023-03-15T11:30:37;2.67;;;0.77;;
17796;SDS011;55596;53.554;9.916;2023-03-15T11:33:05;6.20;;;1.53;;
17796;SDS011;55596;53.554;9.916;2023-03-15T11:35:34;6.10;;;0.97;;
17796;SDS011;55596;53.554;9.916;2023-03-15T11:38:08;4.40;;;0.77;;
17796;SDS011;55596;53.554;9.916;2023-03-15T11:40:37;4.07;;;1.03;;
17796;SDS011;55596;53.554;9.916;2023-03-15T11:43:07;4.60;;;1.33;;
17796;SDS011;55596;53.554;9.916;2023-03-15T11:45:39;5.07;;;1.17;;
17796;SDS011;55596;53.554;9.916;2023-03-15T11:48:10;6.13;;;1.30;;
17796;SDS011;55596;53.554;9.916;2023-03-15T11:50:45;6.73;;;1.30;;
17796;SDS011;55596;53.554;9.916;2023-03-15T11:55:46;5.47;;;1.60;;
17796;SDS011;55596;53.554;9.916;2023-03-15T11:58:26;5.53;;;1.40;;
17796;SDS011;55596;53.554;9.916;2023-03-15T12:00:58;7.93;;;1.10;;
17796;SDS011;55596;53.554;9.916;2023-03-15T12:03:37;10.80;;;1.83;;
17796;SDS011;55596;53.554;9.916;2023-03-15T12:08:51;5.10;;;1.00;;
17796;SDS011;55596;53.554;9.916;2023-03-15T12:11:38;3.87;;;1.00;;
17796;SDS011;55596;53.554;9.916;2023-03-15T12:14:19;5.20;;;1.33;;
17796;SDS011;55596;53.554;9.916;2023-03-15T12:16:48;6.57;;;1.50;;
17796;SDS011;55596;53.554;9.916;2023-03-15T12:19:16;8.53;;;1.73;;
17796;SDS011;55596;53.554;9.916;2023-03-15T12:21:44;6.10;;;1.07;;
17796;SDS011;55596;53.554;9.916;2023-03-15T12:24:14;4.97;;;1.13;;
17796;SDS011;55596;53.554;9.916;2023-03-15T12:26:43;5.33;;;1.40;;
17796;SDS011;55596;53.554;9.916;2023-03-15T12:29:12;5.47;;;1.00;;
17796;SDS011;55596;53.554;9.916;2023-03-15T12:31:41;5.10;;;1.00;;
17796;SDS011;55596;53.554;9.916;2023-03-15T12:34:13;4.70;;;1.10;;
17796;SDS011;55596;53.554;9.916;2023-03-15T12:36:41;5.93;;;1.00;;
17796;SDS011;55596;53.554;9.916;2023-03-15T12:39:21;7.35;;;1.70;;
17796;SDS011;55596;53.554;9.916;2023-03-15T12:42:00;7.60;;;1.30;;
17796;SDS011;55596;53.554;9.916;2023-03-15T12:44:36;6.17;;;1.10;;
17796;SDS011;55596;53.554;9.916;2023-03-15T12:47:04;4.07;;;1.00;;
17796;SDS011;55596;53.554;9.916;2023-03-15T12:49:37;7.93;;;1.43;;
17796;SDS011;55596;53.554;9.916;2023-03-15T12:52:08;3.53;;;0.73;;
17796;SDS011;55596;53.554;9.916;2023-03-15T12:54:41;3.93;;;0.80;;
17796;SDS011;55596;53.554;9.916;2023-03-15T12:57:09;3.40;;;0.80;;
17796;SDS011;55596;53.554;9.916;2023-03-15T12:59:42;2.07;;;0.50;;
17796;SDS011;55596;53.554;9.916;2023-03-15T13:02:18;3.63;;;0.73;;
17796;SDS011;55596;53.554;9.916;2023-03-15T13:04:49;1.60;;;0.70;;
17796;SDS011;55596;53.554;9.916;2023-03-15T13:07:23;5.45;;;1.15;;
17796;SDS011;55596;53.554;9.916;2023-03-15T13:09:58;4.50;;;1.20;;
17796;SDS011;55596;53.554;9.916;2023-03-15T13:12:29;8.40;;;1.20;;
17796;SDS011;55596;53.554;9.916;2023-03-15T13:15:01;4.17;;;0.90;;
17796;SDS011;55596;53.554;9.916;2023-03-15T13:17:33;4.87;;;1.10;;
17796;SDS011;55596;53.554;9.916;2023-03-15T13:20:12;5.07;;;1.30;;
17796;SDS011;55596;53.554;9.916;2023-03-15T13:22:44;3.53;;;1.13;;
17796;SDS011;55596;53.554;9.916;2023-03-15T13:25:15;5.63;;;1.20;;
17796;SDS011;55596;53.554;9.916;2023-03-15T13:27:44;4.47;;;1.10;;
17796;SDS011;55596;53.554;9.916;2023-03-15T13:30:26;5.00;;;1.57;;
17796;SDS011;55596;53.554;9.916;2023-03-15T13:33:01;6.13;;;1.30;;
17796;SDS011;55596;53.554;9.916;2023-03-15T13:35:30;8.50;;;1.33;;
17796;SDS011;55596;53.554;9.916;2023-03-15T13:37:59;8.03;;;1.60;;
17796;SDS011;55596;53.554;9.916;2023-03-15T13:40:26;6.70;;;1.40;;
17796;SDS011;55596;53.554;9.916;2023-03-15T13:42:58;5.83;;;1.60;;
17796;SDS011;55596;53.554;9.916;2023-03-15T13:45:26;10.00;;;1.77;;
17796;SDS011;55596;53.554;9.916;2023-03-15T13:47:53;7.20;;;1.50;;
17796;SDS011;55596;53.554;9.916;2023-03-15T13:50:20;7.40;;;1.30;;
17796;SDS011;55596;53.554;9.916;2023-03-15T13:52:51;6.17;;;1.43;;
17796;SDS011;55596;53.554;9.916;2023-03-15T13:55:19;9.23;;;1.77;;
17796;SDS011;55596;53.554;9.916;2023-03-15T13:57:48;8.27;;;1.80;;
17796;SDS011;55596;53.554;9.916;2023-03-15T14:00:16;6.20;;;1.50;;
17796;SDS011;55596;53.554;9.916;2023-03-15T14:02:46;9.37;;;2.10;;
17796;SDS011;55596;53.554;9.916;2023-03-15T14:05:18;9.57;;;1.47;;
17796;SDS011;55596;53.554;9.916;2023-03-15T14:07:54;13.07;;;2.03;;
17796;SDS011;55596;53.554;9.916;2023-03-15T14:10:27;8.37;;;1.50;;
17796;SDS011;55596;53.554;9.916;2023-03-15T14:12:56;10.90;;;1.60;;
17796;SDS011;55596;53.554;9.916;2023-03-15T14:15:24;10.23;;;1.77;;
17796;SDS011;55596;53.554;9.916;2023-03-15T14:17:54;5.13;;;1.30;;
17796;SDS011;55596;53.554;9.916;2023-03-15T14:20:24;5.70;;;1.30;;
17796;SDS011;55596;53.554;9.916;2023-03-15T14:22:57;6.63;;;1.17;;
17796;SDS011;55596;53.554;9.916;2023-03-15T14:25:25;4.43;;;1.27;;
17796;SDS011;55596;53.554;9.916;2023-03-15T14:27:52;10.27;;;1.20;;
17796;SDS011;55596;53.554;9.916;2023-03-15T14:30:21;3.37;;;0.90;;
17796;SDS011;55596;53.554;9.916;2023-03-15T14:32:52;6.07;;;1.37;;
17796;SDS011;55596;53.554;9.916;2023-03-15T14:35:20;5.57;;;0.97;;
17796;SDS011;55596;53.554;9.916;2023-03-15T14:38:00;5.93;;;1.30;;
17796;SDS011;55596;53.554;9.916;2023-03-15T14:40:28;6.87;;;1.33;;
17796;SDS011;55596;53.554;9.916;2023-03-15T14:42:59;4.40;;;1.33;;
17796;SDS011;55596;53.554;9.916;2023-03-15T14:45:26;5.07;;;1.60;;
17796;SDS011;55596;53.554;9.916;2023-03-15T14:47:56;6.60;;;1.67;;
17796;SDS011;55596;53.554;9.916;2023-03-15T14:50:24;5.17;;;1.23;;
17796;SDS011;55596;53.554;9.916;2023-03-15T14:52:55;8.03;;;1.47;;
17796;SDS011;55596;53.554;9.916;2023-03-15T14:55:26;3.40;;;1.63;;
17796;SDS011;55596;53.554;9.916;2023-03-15T14:57:54;4.90;;;1.30;;